Ana Sayfa
METAR-TAF:

METAR-TAF

Havaalanları :

Dutchess County Airport

Poughkeepsie, New York, Amerika Birleşik Devletleri

Enlem: 41-37-36N, Boylam: 073-53-03W, yükseklik: 50 m

Güncel hava durumu gözlemi

Rapor saat 20:53 UTC de 45 dakika önce yapıldı.
Sakin rüzgar
Sıcaklık 17°C
Nem 34%
Basınç 1018 hPa
Görüş mesafesi: 16.1 km
Açık gökyüzü

METAR: KPOU 152053Z 00000KT 10SM CLR 17/01 A3007 RMK AO2 SLP179 T01670011 58018

Saat: 17:38 (21:38 UTC)

Tahmin

Rapor saat 17:32 UTC de 4 saat ve 6 dakika önce yapıldı.
Ayın 15'si saat 18 UTC'den ayın 16'si saat 18 UTC'ye kadar geçerli Tahmin
Rüzgar güney/güneybatıdan 5 kt
Görüş mesafesi: 10 km
Açık gökyüzü
Ayın 15'si saat 2300 UTC'den
Rüzgar kuzeydan kt
Görüş mesafesi: 10 km
Açık gökyüzü
Ayın 16'si saat 1300 UTC'den
Rüzgar güneydoğudan 7 kt
Görüş mesafesi: 10 km
15000 ft yükseklikte parçalı çok bulutlu

TAF: KPOU 151732Z 1518/1618 21005KT P6SM SKC FM152300 00000KT P6SM SKC FM161300 14007KT P6SM BKN150

4.000'den fazla havaalanı için hava durumu gözlemleri ve tahminleri (METAR ve TAF raporları).

Kullanılabilir istasyonlar harita üzerinde sarı ve kırmızı noktalarla gösterilir.

İstasyonun adını görmek için fareyi noktanın üzerinde gezdirin.

Sonrasında hava gözlem ve tahminlerini görmek için tıklayın.

Haritayı değiştirmek için: yaklaştırmak için siyah artı işaretli yeşil düğmeye ve uzaklaştırmak için de eksi işaretli düğmeye hızla tıklayın; bitişik haritalar için yeşil okları kullanın.


METAR-TAF: